sensor_id;sensor_type;location;lat;lon;timestamp;pressure;altitude;pressure_sealevel;temperature;humidity
59009;BME280;44794;42.652;23.318;2023-04-03T00:00:40;93905.19;;;6.37;88.44
59009;BME280;44794;42.652;23.318;2023-04-03T00:03:06;93897.69;;;6.34;88.65
59009;BME280;44794;42.652;23.318;2023-04-03T00:05:31;93898.63;;;6.33;88.77
59009;BME280;44794;42.652;23.318;2023-04-03T00:07:57;93898.94;;;6.28;89.21
59009;BME280;44794;42.652;23.318;2023-04-03T00:10:22;93895.13;;;6.21;89.58
59009;BME280;44794;42.652;23.318;2023-04-03T00:12:48;93883.69;;;6.13;90.05
59009;BME280;44794;42.652;23.318;2023-04-03T00:15:13;93884.31;;;6.16;90.40
59009;BME280;44794;42.652;23.318;2023-04-03T00:17:39;93879.53;;;6.10;90.63
59009;BME280;44794;42.652;23.318;2023-04-03T00:20:05;93880.59;;;6.08;90.84
59009;BME280;44794;42.652;23.318;2023-04-03T00:22:30;93876.34;;;6.07;91.07
59009;BME280;44794;42.652;23.318;2023-04-03T00:24:56;93875.03;;;6.01;91.38
59009;BME280;44794;42.652;23.318;2023-04-03T00:27:22;93867.38;;;6.00;91.60
59009;BME280;44794;42.652;23.318;2023-04-03T00:29:47;93875.66;;;5.93;91.65
59009;BME280;44794;42.652;23.318;2023-04-03T00:32:13;93866.38;;;5.90;92.06
59009;BME280;44794;42.652;23.318;2023-04-03T00:34:38;93867.31;;;5.89;92.31
59009;BME280;44794;42.652;23.318;2023-04-03T00:37:04;93872.56;;;5.88;92.20
59009;BME280;44794;42.652;23.318;2023-04-03T00:39:30;93870.06;;;5.86;92.37
59009;BME280;44794;42.652;23.318;2023-04-03T00:41:55;93871.03;;;5.85;92.29
59009;BME280;44794;42.652;23.318;2023-04-03T00:46:58;93869.56;;;5.81;92.63
59009;BME280;44794;42.652;23.318;2023-04-03T00:49:25;93865.94;;;5.84;93.26
59009;BME280;44794;42.652;23.318;2023-04-03T00:51:51;93862.75;;;5.80;93.88
59009;BME280;44794;42.652;23.318;2023-04-03T00:54:17;93874.59;;;5.83;94.05
59009;BME280;44794;42.652;23.318;2023-04-03T00:56:43;93880.91;;;5.79;94.08
59009;BME280;44794;42.652;23.318;2023-04-03T00:59:10;93881.81;;;5.78;94.08
59009;BME280;44794;42.652;23.318;2023-04-03T01:01:37;93887.97;;;5.75;94.14
59009;BME280;44794;42.652;23.318;2023-04-03T01:04:03;93884.16;;;5.68;94.14
59009;BME280;44794;42.652;23.318;2023-04-03T01:06:34;93880.16;;;5.64;94.51
59009;BME280;44794;42.652;23.318;2023-04-03T01:09:00;93871.88;;;5.59;94.56
59009;BME280;44794;42.652;23.318;2023-04-03T01:11:26;93882.59;;;5.53;94.57
59009;BME280;44794;42.652;23.318;2023-04-03T01:13:52;93872.28;;;5.53;94.80
59009;BME280;44794;42.652;23.318;2023-04-03T01:16:19;93878.38;;;5.52;94.97
59009;BME280;44794;42.652;23.318;2023-04-03T01:18:45;93874.69;;;5.56;95.05
59009;BME280;44794;42.652;23.318;2023-04-03T01:24:36;93867.16;;;5.53;95.99
59009;BME280;44794;42.652;23.318;2023-04-03T01:27:05;93864.06;;;5.48;96.30
59009;BME280;44794;42.652;23.318;2023-04-03T01:29:31;93863.03;;;5.51;96.96
59009;BME280;44794;42.652;23.318;2023-04-03T01:31:59;93861.88;;;5.55;97.20
59009;BME280;44794;42.652;23.318;2023-04-03T01:34:26;93863.25;;;5.60;97.14
59009;BME280;44794;42.652;23.318;2023-04-03T01:36:52;93865.31;;;5.68;96.42
59009;BME280;44794;42.652;23.318;2023-04-03T01:39:18;93875.22;;;5.74;95.89
59009;BME280;44794;42.652;23.318;2023-04-03T01:41:44;93875.63;;;5.80;95.63
59009;BME280;44794;42.652;23.318;2023-04-03T01:44:10;93872.38;;;5.78;95.05
59009;BME280;44794;42.652;23.318;2023-04-03T01:46:35;93868.19;;;5.76;94.68
59009;BME280;44794;42.652;23.318;2023-04-03T01:49:03;93867.06;;;5.67;94.87
59009;BME280;44794;42.652;23.318;2023-04-03T01:51:28;93866.97;;;5.56;95.31
59009;BME280;44794;42.652;23.318;2023-04-03T01:53:54;93881.59;;;5.68;95.27
59009;BME280;44794;42.652;23.318;2023-04-03T01:56:19;93884.06;;;5.70;95.01
59009;BME280;44794;42.652;23.318;2023-04-03T01:58:45;93879.53;;;5.61;95.17
59009;BME280;44794;42.652;23.318;2023-04-03T02:01:10;93867.56;;;5.47;95.45
59009;BME280;44794;42.652;23.318;2023-04-03T02:03:36;93873.72;;;5.45;96.13
59009;BME280;44794;42.652;23.318;2023-04-03T02:06:02;93873.13;;;5.66;95.69
59009;BME280;44794;42.652;23.318;2023-04-03T02:08:27;93872.72;;;5.72;95.16
59009;BME280;44794;42.652;23.318;2023-04-03T02:10:53;93881.00;;;5.77;94.48
59009;BME280;44794;42.652;23.318;2023-04-03T02:13:18;93882.91;;;5.61;94.79
59009;BME280;44794;42.652;23.318;2023-04-03T02:15:44;93884.66;;;5.48;95.29
59009;BME280;44794;42.652;23.318;2023-04-03T02:18:11;93888.75;;;5.38;95.63
59009;BME280;44794;42.652;23.318;2023-04-03T02:20:36;93876.38;;;5.31;96.12
59009;BME280;44794;42.652;23.318;2023-04-03T02:23:02;93870.63;;;5.27;96.66
59009;BME280;44794;42.652;23.318;2023-04-03T02:25:27;93866.38;;;5.26;96.87
59009;BME280;44794;42.652;23.318;2023-04-03T02:27:53;93856.28;;;5.23;97.03
59009;BME280;44794;42.652;23.318;2023-04-03T02:30:18;93862.38;;;5.22;97.33
59009;BME280;44794;42.652;23.318;2023-04-03T02:32:44;93864.31;;;5.19;97.56
59009;BME280;44794;42.652;23.318;2023-04-03T02:35:10;93860.28;;;5.15;97.69
59009;BME280;44794;42.652;23.318;2023-04-03T02:37:37;93859.88;;;5.09;97.69
59009;BME280;44794;42.652;23.318;2023-04-03T02:40:03;93851.41;;;5.07;97.96
59009;BME280;44794;42.652;23.318;2023-04-03T02:42:29;93856.84;;;5.02;98.20
59009;BME280;44794;42.652;23.318;2023-04-03T02:44:54;93855.88;;;4.91;98.41
59009;BME280;44794;42.652;23.318;2023-04-03T02:47:20;93853.19;;;4.80;98.81
59009;BME280;44794;42.652;23.318;2023-04-03T02:49:45;93846.38;;;4.79;99.45
59009;BME280;44794;42.652;23.318;2023-04-03T02:52:12;93844.53;;;4.81;100.00
59009;BME280;44794;42.652;23.318;2023-04-03T02:54:38;93829.31;;;4.78;100.00
59009;BME280;44794;42.652;23.318;2023-04-03T02:57:03;93833.94;;;4.73;100.00
59009;BME280;44794;42.652;23.318;2023-04-03T02:59:29;93833.38;;;4.68;100.00
59009;BME280;44794;42.652;23.318;2023-04-03T03:01:54;93836.34;;;4.62;100.00
59009;BME280;44794;42.652;23.318;2023-04-03T03:04:21;93827.38;;;4.55;100.00
59009;BME280;44794;42.652;23.318;2023-04-03T03:06:46;93829.41;;;4.50;100.00
59009;BME280;44794;42.652;23.318;2023-04-03T03:09:12;93823.19;;;4.40;100.00
59009;BME280;44794;42.652;23.318;2023-04-03T03:11:38;93813.38;;;4.33;100.00
59009;BME280;44794;42.652;23.318;2023-04-03T03:14:04;93809.28;;;4.30;100.00
59009;BME280;44794;42.652;23.318;2023-04-03T03:16:29;93812.31;;;4.23;100.00
59009;BME280;44794;42.652;23.318;2023-04-03T03:18:55;93808.78;;;4.38;100.00
59009;BME280;44794;42.652;23.318;2023-04-03T03:21:20;93813.19;;;4.36;100.00
59009;BME280;44794;42.652;23.318;2023-04-03T03:23:45;93810.94;;;4.31;100.00
59009;BME280;44794;42.652;23.318;2023-04-03T03:26:11;93813.84;;;4.25;100.00
59009;BME280;44794;42.652;23.318;2023-04-03T03:28:38;93805.44;;;4.23;100.00
59009;BME280;44794;42.652;23.318;2023-04-03T03:31:04;93802.88;;;4.23;100.00
59009;BME280;44794;42.652;23.318;2023-04-03T03:33:30;93806.69;;;4.30;100.00
59009;BME280;44794;42.652;23.318;2023-04-03T03:35:56;93801.75;;;4.27;100.00
59009;BME280;44794;42.652;23.318;2023-04-03T03:38:22;93809.72;;;4.23;100.00
59009;BME280;44794;42.652;23.318;2023-04-03T03:40:49;93823.59;;;4.20;100.00
59009;BME280;44794;42.652;23.318;2023-04-03T03:43:15;93813.31;;;4.20;100.00
59009;BME280;44794;42.652;23.318;2023-04-03T03:45:41;93811.88;;;4.16;100.00
59009;BME280;44794;42.652;23.318;2023-04-03T03:48:07;93802.69;;;4.12;100.00
59009;BME280;44794;42.652;23.318;2023-04-03T03:50:32;93803.72;;;4.10;100.00
59009;BME280;44794;42.652;23.318;2023-04-03T03:52:58;93805.81;;;4.17;100.00
59009;BME280;44794;42.652;23.318;2023-04-03T03:55:23;93813.44;;;4.19;100.00
59009;BME280;44794;42.652;23.318;2023-04-03T03:57:49;93807.91;;;4.25;100.00
59009;BME280;44794;42.652;23.318;2023-04-03T04:00:15;93802.47;;;4.29;100.00
59009;BME280;44794;42.652;23.318;2023-04-03T04:02:41;93810.19;;;4.29;100.00
59009;BME280;44794;42.652;23.318;2023-04-03T04:05:07;93806.41;;;4.35;100.00
59009;BME280;44794;42.652;23.318;2023-04-03T04:07:33;93813.69;;;4.28;100.00
59009;BME280;44794;42.652;23.318;2023-04-03T04:09:58;93806.50;;;4.33;100.00
59009;BME280;44794;42.652;23.318;2023-04-03T04:12:24;93804.56;;;4.37;100.00
59009;BME280;44794;42.652;23.318;2023-04-03T04:14:49;93817.22;;;4.40;100.00
59009;BME280;44794;42.652;23.318;2023-04-03T04:17:15;93823.91;;;4.42;100.00
59009;BME280;44794;42.652;23.318;2023-04-03T04:19:40;93823.63;;;4.46;100.00
59009;BME280;44794;42.652;23.318;2023-04-03T04:22:05;93826.72;;;4.51;100.00
59009;BME280;44794;42.652;23.318;2023-04-03T04:24:31;93826.63;;;4.53;100.00
59009;BME280;44794;42.652;23.318;2023-04-03T04:26:56;93831.47;;;4.57;100.00
59009;BME280;44794;42.652;23.318;2023-04-03T04:29:22;93820.91;;;4.62;100.00
59009;BME280;44794;42.652;23.318;2023-04-03T04:31:48;93820.13;;;4.74;100.00
59009;BME280;44794;42.652;23.318;2023-04-03T04:34:14;93828.28;;;4.80;100.00
59009;BME280;44794;42.652;23.318;2023-04-03T04:36:40;93837.06;;;4.90;100.00
59009;BME280;44794;42.652;23.318;2023-04-03T04:39:05;93844.28;;;4.98;100.00
59009;BME280;44794;42.652;23.318;2023-04-03T04:41:31;93841.31;;;5.04;100.00
59009;BME280;44794;42.652;23.318;2023-04-03T04:43:57;93837.81;;;5.05;100.00
59009;BME280;44794;42.652;23.318;2023-04-03T04:46:22;93844.66;;;5.18;100.00
59009;BME280;44794;42.652;23.318;2023-04-03T04:48:48;93853.13;;;5.32;100.00
59009;BME280;44794;42.652;23.318;2023-04-03T04:51:14;93864.47;;;5.42;100.00
59009;BME280;44794;42.652;23.318;2023-04-03T04:53:40;93870.22;;;5.58;99.98
59009;BME280;44794;42.652;23.318;2023-04-03T04:56:06;93870.44;;;5.55;99.05
59009;BME280;44794;42.652;23.318;2023-04-03T04:58:32;93876.94;;;5.73;98.48
59009;BME280;44794;42.652;23.318;2023-04-03T05:03:26;93883.56;;;6.02;96.81
59009;BME280;44794;42.652;23.318;2023-04-03T05:05:52;93886.97;;;6.15;96.34
59009;BME280;44794;42.652;23.318;2023-04-03T05:08:17;93894.09;;;6.24;95.55
59009;BME280;44794;42.652;23.318;2023-04-03T05:10:45;93903.53;;;6.36;94.81
59009;BME280;44794;42.652;23.318;2023-04-03T05:13:11;93908.56;;;6.50;94.32
59009;BME280;44794;42.652;23.318;2023-04-03T05:15:36;93911.88;;;6.64;93.58
59009;BME280;44794;42.652;23.318;2023-04-03T05:18:02;93917.22;;;6.73;92.63
59009;BME280;44794;42.652;23.318;2023-04-03T05:20:27;93924.72;;;6.76;92.47
59009;BME280;44794;42.652;23.318;2023-04-03T05:22:52;93927.38;;;6.87;92.81
59009;BME280;44794;42.652;23.318;2023-04-03T05:25:18;93917.72;;;7.02;92.54
59009;BME280;44794;42.652;23.318;2023-04-03T05:27:43;93925.09;;;7.19;92.08
59009;BME280;44794;42.652;23.318;2023-04-03T05:30:09;93925.44;;;7.38;91.31
59009;BME280;44794;42.652;23.318;2023-04-03T05:32:35;93933.41;;;7.58;90.15
59009;BME280;44794;42.652;23.318;2023-04-03T05:35:00;93928.31;;;7.80;89.12
59009;BME280;44794;42.652;23.318;2023-04-03T05:37:25;93931.03;;;8.00;87.97
59009;BME280;44794;42.652;23.318;2023-04-03T05:39:51;93924.44;;;8.20;86.73
59009;BME280;44794;42.652;23.318;2023-04-03T05:42:16;93928.19;;;8.26;85.27
59009;BME280;44794;42.652;23.318;2023-04-03T05:44:42;93936.19;;;8.45;84.26
59009;BME280;44794;42.652;23.318;2023-04-03T05:47:08;93930.56;;;8.62;83.14
59009;BME280;44794;42.652;23.318;2023-04-03T05:49:33;93927.97;;;8.84;82.06
59009;BME280;44794;42.652;23.318;2023-04-03T05:51:59;93930.53;;;9.06;80.83
59009;BME280;44794;42.652;23.318;2023-04-03T05:54:27;93933.59;;;9.11;79.51
59009;BME280;44794;42.652;23.318;2023-04-03T05:56:53;93930.47;;;9.39;78.70
59009;BME280;44794;42.652;23.318;2023-04-03T05:59:19;93934.56;;;9.41;77.23
59009;BME280;44794;42.652;23.318;2023-04-03T06:01:45;93933.16;;;9.37;76.60
59009;BME280;44794;42.652;23.318;2023-04-03T06:04:11;93935.03;;;9.46;76.45
59009;BME280;44794;42.652;23.318;2023-04-03T06:06:47;93935.09;;;9.56;76.75
59009;BME280;44794;42.652;23.318;2023-04-03T06:09:14;93929.03;;;9.46;75.35
59009;BME280;44794;42.652;23.318;2023-04-03T06:11:40;93934.44;;;9.43;74.49
59009;BME280;44794;42.652;23.318;2023-04-03T06:14:07;93929.03;;;9.46;74.22
59009;BME280;44794;42.652;23.318;2023-04-03T06:16:34;93914.38;;;9.56;74.57
59009;BME280;44794;42.652;23.318;2023-04-03T06:18:59;93908.66;;;9.72;74.31
59009;BME280;44794;42.652;23.318;2023-04-03T06:21:25;93919.75;;;9.74;73.19
59009;BME280;44794;42.652;23.318;2023-04-03T06:23:50;93922.69;;;10.01;72.16
59009;BME280;44794;42.652;23.318;2023-04-03T06:26:16;93924.72;;;10.18;70.71
59009;BME280;44794;42.652;23.318;2023-04-03T06:28:42;93940.78;;;10.12;70.37
59009;BME280;44794;42.652;23.318;2023-04-03T06:31:07;93932.88;;;10.34;69.64
59009;BME280;44794;42.652;23.318;2023-04-03T06:33:34;93949.63;;;10.71;69.05
59009;BME280;44794;42.652;23.318;2023-04-03T06:36:02;93939.72;;;10.95;67.24
59009;BME280;44794;42.652;23.318;2023-04-03T06:38:28;93951.75;;;11.25;66.12
59009;BME280;44794;42.652;23.318;2023-04-03T06:40:54;93953.09;;;11.69;64.47
59009;BME280;44794;42.652;23.318;2023-04-03T06:43:19;93959.00;;;11.90;63.39
59009;BME280;44794;42.652;23.318;2023-04-03T06:45:45;93953.94;;;11.88;62.87
59009;BME280;44794;42.652;23.318;2023-04-03T06:48:12;93947.47;;;11.73;62.54
59009;BME280;44794;42.652;23.318;2023-04-03T06:50:38;93948.31;;;11.74;62.50
59009;BME280;44794;42.652;23.318;2023-04-03T06:53:03;93959.78;;;11.52;62.20
59009;BME280;44794;42.652;23.318;2023-04-03T06:55:29;93969.31;;;11.42;62.96
59009;BME280;44794;42.652;23.318;2023-04-03T06:57:55;93963.31;;;11.51;63.15
59009;BME280;44794;42.652;23.318;2023-04-03T07:00:21;93966.94;;;11.69;63.35
59009;BME280;44794;42.652;23.318;2023-04-03T07:02:46;93957.38;;;11.98;61.91
59009;BME280;44794;42.652;23.318;2023-04-03T07:05:12;93955.16;;;12.22;60.92
59009;BME280;44794;42.652;23.318;2023-04-03T07:07:39;93958.44;;;12.43;59.90
59009;BME280;44794;42.652;23.318;2023-04-03T07:10:06;93955.09;;;12.69;59.57
59009;BME280;44794;42.652;23.318;2023-04-03T07:12:32;93949.97;;;12.86;57.71
59009;BME280;44794;42.652;23.318;2023-04-03T07:14:57;93958.03;;;13.02;56.59
59009;BME280;44794;42.652;23.318;2023-04-03T07:17:23;93944.25;;;12.73;56.62
59009;BME280;44794;42.652;23.318;2023-04-03T07:19:49;93944.06;;;12.39;58.82
59009;BME280;44794;42.652;23.318;2023-04-03T07:22:15;93949.03;;;12.69;57.99
59009;BME280;44794;42.652;23.318;2023-04-03T07:24:41;93939.16;;;12.91;58.07
59009;BME280;44794;42.652;23.318;2023-04-03T07:27:06;93936.56;;;13.18;56.48
59009;BME280;44794;42.652;23.318;2023-04-03T07:29:33;93938.78;;;13.13;55.28
59009;BME280;44794;42.652;23.318;2023-04-03T07:31:59;93935.56;;;13.28;55.36
59009;BME280;44794;42.652;23.318;2023-04-03T07:34:25;93930.56;;;13.61;54.75
59009;BME280;44794;42.652;23.318;2023-04-03T07:36:50;93950.06;;;13.57;52.99
59009;BME280;44794;42.652;23.318;2023-04-03T07:39:16;93927.16;;;13.34;54.08
59009;BME280;44794;42.652;23.318;2023-04-03T07:41:41;93929.84;;;13.42;53.42
59009;BME280;44794;42.652;23.318;2023-04-03T07:44:06;93929.63;;;13.53;53.52
59009;BME280;44794;42.652;23.318;2023-04-03T07:46:34;93925.88;;;13.65;53.31
59009;BME280;44794;42.652;23.318;2023-04-03T07:49:00;93924.97;;;13.74;52.33
59009;BME280;44794;42.652;23.318;2023-04-03T07:51:25;93919.19;;;13.09;54.18
59009;BME280;44794;42.652;23.318;2023-04-03T07:53:52;93921.75;;;12.73;55.73
59009;BME280;44794;42.652;23.318;2023-04-03T07:56:17;93910.88;;;12.86;55.43
59009;BME280;44794;42.652;23.318;2023-04-03T07:58:43;93925.13;;;13.28;54.11
59009;BME280;44794;42.652;23.318;2023-04-03T08:01:08;93915.75;;;13.08;53.82
59009;BME280;44794;42.652;23.318;2023-04-03T08:03:34;93904.59;;;13.16;55.37
59009;BME280;44794;42.652;23.318;2023-04-03T08:06:07;93909.91;;;13.68;53.92
59009;BME280;44794;42.652;23.318;2023-04-03T08:08:33;93918.66;;;14.11;52.02
59009;BME280;44794;42.652;23.318;2023-04-03T08:11:00;93916.66;;;14.23;51.52
59009;BME280;44794;42.652;23.318;2023-04-03T08:13:27;93918.00;;;14.27;50.29
59009;BME280;44794;42.652;23.318;2023-04-03T08:15:53;93909.75;;;14.39;49.78
59009;BME280;44794;42.652;23.318;2023-04-03T08:18:18;93908.28;;;14.36;50.17
59009;BME280;44794;42.652;23.318;2023-04-03T08:20:46;93909.56;;;14.32;50.02
59009;BME280;44794;42.652;23.318;2023-04-03T08:23:12;93904.56;;;14.22;50.46
59009;BME280;44794;42.652;23.318;2023-04-03T08:25:40;93907.09;;;14.31;51.33
59009;BME280;44794;42.652;23.318;2023-04-03T08:28:06;93904.59;;;14.72;50.76
59009;BME280;44794;42.652;23.318;2023-04-03T08:30:32;93914.44;;;14.78;50.33
59009;BME280;44794;42.652;23.318;2023-04-03T08:33:00;93909.88;;;14.80;50.83
59009;BME280;44794;42.652;23.318;2023-04-03T08:35:27;93903.97;;;15.03;49.93
59009;BME280;44794;42.652;23.318;2023-04-03T08:37:52;93901.69;;;15.08;48.87
59009;BME280;44794;42.652;23.318;2023-04-03T08:40:18;93893.88;;;15.16;48.34
59009;BME280;44794;42.652;23.318;2023-04-03T08:45:48;93891.31;;;14.91;49.64
59009;BME280;44794;42.652;23.318;2023-04-03T08:48:19;93886.16;;;15.07;48.60
59009;BME280;44794;42.652;23.318;2023-04-03T08:50:48;93889.97;;;15.46;48.83
59009;BME280;44794;42.652;23.318;2023-04-03T08:53:19;93885.38;;;15.40;47.59
59009;BME280;44794;42.652;23.318;2023-04-03T08:55:48;93880.28;;;15.38;47.87
59009;BME280;44794;42.652;23.318;2023-04-03T08:58:26;93882.91;;;15.13;49.12
59009;BME280;44794;42.652;23.318;2023-04-03T09:01:03;93867.97;;;15.23;48.26
59009;BME280;44794;42.652;23.318;2023-04-03T09:03:36;93878.16;;;14.75;49.06
59009;BME280;44794;42.652;23.318;2023-04-03T09:08:51;93856.44;;;14.24;51.27
59009;BME280;44794;42.652;23.318;2023-04-03T09:11:51;93860.56;;;14.52;51.20
59009;BME280;44794;42.652;23.318;2023-04-03T09:20:06;93846.91;;;14.99;49.90
59009;BME280;44794;42.652;23.318;2023-04-03T09:22:39;93850.66;;;14.97;48.26
59009;BME280;44794;42.652;23.318;2023-04-03T09:25:17;93838.59;;;15.37;48.80
59009;BME280;44794;42.652;23.318;2023-04-03T09:27:44;93841.50;;;15.34;46.71
59009;BME280;44794;42.652;23.318;2023-04-03T09:30:15;93843.66;;;14.97;47.87
59009;BME280;44794;42.652;23.318;2023-04-03T09:32:41;93840.88;;;15.48;47.49
59009;BME280;44794;42.652;23.318;2023-04-03T09:35:23;93837.94;;;15.43;45.57
59009;BME280;44794;42.652;23.318;2023-04-03T09:37:54;93838.13;;;15.08;45.88
59009;BME280;44794;42.652;23.318;2023-04-03T09:42:52;93838.00;;;14.84;46.70
59009;BME280;44794;42.652;23.318;2023-04-03T09:45:34;93831.25;;;14.66;47.44
59009;BME280;44794;42.652;23.318;2023-04-03T09:50:52;93831.47;;;14.80;46.93
59009;BME280;44794;42.652;23.318;2023-04-03T09:56:24;93826.91;;;14.82;46.22
59009;BME280;44794;42.652;23.318;2023-04-03T10:01:34;93811.44;;;14.63;46.44
59009;BME280;44794;42.652;23.318;2023-04-03T10:04:18;93815.34;;;14.59;46.51
59009;BME280;44794;42.652;23.318;2023-04-03T10:06:50;93814.56;;;14.33;46.74
59009;BME280;44794;42.652;23.318;2023-04-03T10:09:27;93813.66;;;14.50;46.94
59009;BME280;44794;42.652;23.318;2023-04-03T10:14:40;93814.75;;;14.15;47.57
59009;BME280;44794;42.652;23.318;2023-04-03T10:20:44;93807.44;;;14.01;48.63
59009;BME280;44794;42.652;23.318;2023-04-03T10:25:48;93797.13;;;13.39;49.80
59009;BME280;44794;42.652;23.318;2023-04-03T10:28:41;93789.97;;;13.41;50.60
59009;BME280;44794;42.652;23.318;2023-04-03T10:31:27;93790.78;;;13.59;50.58
59009;BME280;44794;42.652;23.318;2023-04-03T10:34:50;93793.19;;;13.70;50.69
59009;BME280;44794;42.652;23.318;2023-04-03T10:37:21;93781.03;;;13.44;50.02
59009;BME280;44794;42.652;23.318;2023-04-03T10:39:59;93775.81;;;13.61;50.99
59009;BME280;44794;42.652;23.318;2023-04-03T10:48:59;93767.31;;;13.59;50.57
59009;BME280;44794;42.652;23.318;2023-04-03T10:51:31;93766.50;;;13.41;50.63
59009;BME280;44794;42.652;23.318;2023-04-03T10:56:48;93764.59;;;13.43;51.40
59009;BME280;44794;42.652;23.318;2023-04-03T10:59:25;93761.91;;;13.18;52.12
59009;BME280;44794;42.652;23.318;2023-04-03T11:05:55;93760.94;;;13.19;55.04
59009;BME280;44794;42.652;23.318;2023-04-03T11:10:53;93757.09;;;12.06;61.56
59009;BME280;44794;42.652;23.318;2023-04-03T11:13:32;93765.50;;;11.91;65.09
59009;BME280;44794;42.652;23.318;2023-04-03T11:16:00;93759.31;;;11.55;67.85
59009;BME280;44794;42.652;23.318;2023-04-03T11:18:32;93758.59;;;11.34;71.15
59009;BME280;44794;42.652;23.318;2023-04-03T11:21:22;93746.03;;;11.21;73.19
59009;BME280;44794;42.652;23.318;2023-04-03T11:23:51;93744.66;;;10.98;75.91
59009;BME280;44794;42.652;23.318;2023-04-03T11:26:22;93746.28;;;10.89;78.36
59009;BME280;44794;42.652;23.318;2023-04-03T11:29:05;93740.78;;;10.73;80.52
59009;BME280;44794;42.652;23.318;2023-04-03T11:34:13;93730.53;;;10.62;86.03
59009;BME280;44794;42.652;23.318;2023-04-03T11:36:55;93718.22;;;10.55;88.21
59009;BME280;44794;42.652;23.318;2023-04-03T11:39:34;93712.88;;;10.56;89.65
59009;BME280;44794;42.652;23.318;2023-04-03T11:42:26;93716.56;;;10.54;91.05
59009;BME280;44794;42.652;23.318;2023-04-03T11:45:24;93701.69;;;10.47;92.61
59009;BME280;44794;42.652;23.318;2023-04-03T11:47:53;93712.28;;;10.34;92.72
59009;BME280;44794;42.652;23.318;2023-04-03T12:05:57;93695.91;;;9.65;100.00
59009;BME280;44794;42.652;23.318;2023-04-03T12:13:39;93683.03;;;9.13;100.00
59009;BME280;44794;42.652;23.318;2023-04-03T12:26:46;93630.25;;;9.25;100.00
59009;BME280;44794;42.652;23.318;2023-04-03T12:35:26;93628.94;;;9.10;100.00
59009;BME280;44794;42.652;23.318;2023-04-03T12:46:21;93590.41;;;8.96;100.00
59009;BME280;44794;42.652;23.318;2023-04-03T12:48:56;93581.25;;;8.92;100.00
59009;BME280;44794;42.652;23.318;2023-04-03T12:51:39;93565.72;;;8.92;100.00
59009;BME280;44794;42.652;23.318;2023-04-03T12:56:49;93556.25;;;9.02;100.00
59009;BME280;44794;42.652;23.318;2023-04-03T12:59:16;93555.16;;;9.04;100.00
59009;BME280;44794;42.652;23.318;2023-04-03T13:01:44;93554.34;;;9.04;100.00
59009;BME280;44794;42.652;23.318;2023-04-03T13:04:17;93564.34;;;8.88;100.00
59009;BME280;44794;42.652;23.318;2023-04-03T13:06:43;93575.72;;;8.76;100.00
59009;BME280;44794;42.652;23.318;2023-04-03T13:09:22;93570.38;;;8.68;100.00
59009;BME280;44794;42.652;23.318;2023-04-03T13:11:49;93571.69;;;8.63;100.00
59009;BME280;44794;42.652;23.318;2023-04-03T13:14:22;93567.38;;;8.52;100.00
59009;BME280;44794;42.652;23.318;2023-04-03T13:19:24;93562.34;;;8.51;100.00
59009;BME280;44794;42.652;23.318;2023-04-03T13:22:01;93560.50;;;8.42;100.00
59009;BME280;44794;42.652;23.318;2023-04-03T13:24:29;93551.75;;;8.33;100.00
59009;BME280;44794;42.652;23.318;2023-04-03T13:26:56;93537.31;;;8.31;100.00
59009;BME280;44794;42.652;23.318;2023-04-03T13:29:27;93528.34;;;8.35;100.00
59009;BME280;44794;42.652;23.318;2023-04-03T13:31:54;93528.09;;;8.38;100.00
59009;BME280;44794;42.652;23.318;2023-04-03T13:34:22;93515.97;;;8.38;100.00
59009;BME280;44794;42.652;23.318;2023-04-03T13:39:32;93521.66;;;8.32;100.00
59009;BME280;44794;42.652;23.318;2023-04-03T13:42:00;93520.13;;;8.30;100.00
59009;BME280;44794;42.652;23.318;2023-04-03T13:44:35;93530.16;;;8.23;100.00
59009;BME280;44794;42.652;23.318;2023-04-03T13:49:38;93503.63;;;8.22;100.00
59009;BME280;44794;42.652;23.318;2023-04-03T13:55:09;93491.16;;;8.16;100.00
59009;BME280;44794;42.652;23.318;2023-04-03T13:58:00;93484.94;;;8.18;100.00
59009;BME280;44794;42.652;23.318;2023-04-03T14:03:00;93488.78;;;8.23;100.00
59009;BME280;44794;42.652;23.318;2023-04-03T14:05:25;93483.16;;;8.19;100.00
59009;BME280;44794;42.652;23.318;2023-04-03T14:07:53;93485.75;;;8.19;100.00
59009;BME280;44794;42.652;23.318;2023-04-03T14:10:20;93476.22;;;8.19;100.00
59009;BME280;44794;42.652;23.318;2023-04-03T14:12:46;93479.66;;;8.09;100.00
59009;BME280;44794;42.652;23.318;2023-04-03T14:15:27;93485.31;;;8.03;100.00
59009;BME280;44794;42.652;23.318;2023-04-03T14:17:54;93484.75;;;7.99;100.00
59009;BME280;44794;42.652;23.318;2023-04-03T14:20:24;93494.16;;;8.00;100.00
59009;BME280;44794;42.652;23.318;2023-04-03T14:22:51;93489.69;;;8.02;100.00
59009;BME280;44794;42.652;23.318;2023-04-03T14:25:17;93484.25;;;8.05;100.00
59009;BME280;44794;42.652;23.318;2023-04-03T14:27:46;93481.81;;;8.04;100.00
59009;BME280;44794;42.652;23.318;2023-04-03T14:30:26;93489.34;;;7.96;100.00
59009;BME280;44794;42.652;23.318;2023-04-03T14:32:52;93491.28;;;7.94;100.00
59009;BME280;44794;42.652;23.318;2023-04-03T14:35:18;93491.06;;;7.86;100.00
59009;BME280;44794;42.652;23.318;2023-04-03T14:37:45;93495.66;;;7.82;100.00
59009;BME280;44794;42.652;23.318;2023-04-03T14:40:20;93500.34;;;7.77;100.00
59009;BME280;44794;42.652;23.318;2023-04-03T14:42:46;93503.34;;;7.73;100.00
59009;BME280;44794;42.652;23.318;2023-04-03T14:45:14;93495.59;;;7.73;100.00
59009;BME280;44794;42.652;23.318;2023-04-03T14:47:45;93493.81;;;7.73;100.00
59009;BME280;44794;42.652;23.318;2023-04-03T14:50:17;93487.19;;;7.80;100.00
59009;BME280;44794;42.652;23.318;2023-04-03T14:52:43;93483.34;;;7.75;100.00
59009;BME280;44794;42.652;23.318;2023-04-03T14:55:12;93481.59;;;7.75;100.00
59009;BME280;44794;42.652;23.318;2023-04-03T14:57:38;93476.78;;;7.71;100.00